Portada
METAR-TAF:

METAR-TAF

Aeroports :

Yankton, Dakota del Sud, Estats Units d'Amèrica

latitud: 42-55N, longitud: 097-23W, altitud: 398 m

Observació

L'informe es va fer fa 1 hora i 5 minuts, a les 15:56 UTC
Vent 3 kt del Est
Temperatura -3°C
Humitat 93%
Pressió 1020 hPa
Visibilitat: 14.5 km
Cel cobert a una alçada de 500 ft
neu

METAR: KYKN 281556Z AUTO 09003KT 9SM -SN OVC005 M03/M04 A3013 RMK AO2 UPB09E45SNB1459E09B45 SLP234 P0000 T10281039 FZRANO

Hora: 11:01 (17:01 UTC)


TAF: manca

Observacions i pronòstics meteorològics de més de 4000 aeroports (METAR i TAF).

Les estacions disponibles són els punts grocs i vermells al mapa.

Posi el ratolí al punt desitjat per veure el nom de l'estació.

Feu clic per veure les observacions i els pronòstics meteorològics.

Per canviar el mapa: feu clic els botons verds amb una creu de color negre per apropar; al botó verd amb un guió per allunyar la imatge; o en les fletxes verdes per a mapes adjacents.


METAR-TAF: